Time;durP1;ratioP1;P1;durP2;ratioP2;P2;SDS_P1;SDS_P2;PMS_P1;PMS_P2;Temp;Humidity;BMP_temperature;BMP_pressure;BME280_temperature;BME280_humidity;BME280_pressure;Samples;Min_cycle;Max_cycle;Signal;HPM_P1;HPM_P2
2023/07/03 00:01:08;;;;;;;4.17;3.77;;;22.80;96.10;;;;;;6251901;28;20315;-62
2023/07/03 00:04:13;;;;;;;7.73;3.57;;;22.90;96.30;;;;;;6255034;28;20239;-62
2023/07/03 00:07:16;;;;;;;3.90;3.60;;;22.90;96.50;;;;;;6254502;28;20319;-62
2023/07/03 00:10:21;;;;;;;5.20;4.70;;;22.90;96.60;;;;;;6254461;28;20232;-62
2023/07/03 00:13:28;;;;;;;4.97;4.47;;;22.80;96.50;;;;;;6254387;28;20248;-62
2023/07/03 00:16:31;;;;;;;5.20;3.47;;;22.90;96.60;;;;;;6253549;28;20231;-62
2023/07/03 00:19:37;;;;;;;4.43;3.60;;;22.90;96.60;;;;;;6255150;28;20232;-62
2023/07/03 00:22:41;;;;;;;4.10;3.70;;;22.90;96.50;;;;;;6237429;28;20242;-62
2023/07/03 00:25:45;;;;;;;3.73;3.43;;;22.90;96.30;;;;;;6253913;28;20232;-62
2023/07/03 00:28:48;;;;;;;5.17;3.37;;;22.90;96.20;;;;;;6253982;28;20228;-62
2023/07/03 00:31:54;;;;;;;3.63;3.33;;;22.80;95.80;;;;;;6253391;28;20239;-62
2023/07/03 00:34:59;;;;;;;3.90;3.60;;;22.80;95.90;;;;;;6253311;28;20594;-62
2023/07/03 00:38:02;;;;;;;3.60;3.27;;;22.80;95.80;;;;;;6253021;28;20247;-62
2023/07/03 00:41:09;;;;;;;3.70;3.40;;;22.70;95.70;;;;;;6236521;28;20223;-62
2023/07/03 00:44:17;;;;;;;4.30;3.90;;;22.60;95.80;;;;;;6253331;28;20244;-62
2023/07/03 00:47:22;;;;;;;4.03;3.50;;;22.60;96.10;;;;;;6244151;28;20247;-62
2023/07/03 00:50:27;;;;;;;5.57;4.40;;;22.50;96.00;;;;;;6253413;28;20232;-62
2023/07/03 00:53:30;;;;;;;3.80;3.40;;;22.50;96.30;;;;;;6252560;28;20552;-62
2023/07/03 00:56:33;;;;;;;3.97;3.57;;;22.50;96.50;;;;;;6252348;28;20229;-62
2023/07/03 00:59:39;;;;;;;3.10;2.90;;;22.50;96.90;;;;;;6253173;28;20208;-62
2023/07/03 01:02:51;;;;;;;3.70;2.90;;;22.40;96.60;;;;;;6253819;28;20646;-62
2023/07/03 01:05:56;;;;;;;4.20;3.30;;;22.40;96.70;;;;;;6253595;28;20253;-62
2023/07/03 01:09:02;;;;;;;4.50;3.60;;;22.40;96.70;;;;;;6252971;28;20255;-61
2023/07/03 01:12:07;;;;;;;4.23;3.67;;;22.40;96.70;;;;;;6252693;28;20225;-61
2023/07/03 01:15:17;;;;;;;5.10;3.60;;;22.30;96.90;;;;;;6252613;28;20227;-61
2023/07/03 01:18:21;;;;;;;4.00;3.70;;;22.30;96.70;;;;;;6252612;28;20243;-62
2023/07/03 01:21:32;;;;;;;4.00;3.67;;;22.30;96.70;;;;;;6252590;28;20235;-62
2023/07/03 01:24:45;;;;;;;4.47;3.93;;;22.30;96.90;;;;;;6252413;28;20627;-61
2023/07/03 01:27:58;;;;;;;4.43;4.03;;;22.30;96.90;;;;;;6252450;28;20530;-61
2023/07/03 01:31:07;;;;;;;8.37;4.03;;;22.20;96.90;;;;;;6252368;28;20311;-61
2023/07/03 01:34:12;;;;;;;4.60;4.20;;;22.20;97.00;;;;;;6251726;28;20296;-61
2023/07/03 01:37:20;;;;;;;4.43;4.00;;;22.20;97.00;;;;;;6234722;28;20252;-61
2023/07/03 01:40:26;;;;;;;4.20;3.73;;;22.30;97.20;;;;;;6252043;28;20580;-61
2023/07/03 01:43:31;;;;;;;3.90;3.47;;;22.30;97.20;;;;;;6252159;28;20246;-62
2023/07/03 01:46:37;;;;;;;4.37;3.93;;;22.30;97.30;;;;;;6251616;28;20239;-62
2023/07/03 01:49:40;;;;;;;3.90;3.40;;;22.20;97.40;;;;;;6247589;28;20236;-62
2023/07/03 01:52:51;;;;;;;4.07;3.70;;;22.30;97.50;;;;;;6235299;28;20250;-62
2023/07/03 01:56:04;;;;;;;3.87;3.57;;;22.20;97.40;;;;;;6251901;28;20250;-62
2023/07/03 01:59:11;;;;;;;4.50;3.93;;;22.20;97.50;;;;;;6251492;28;20243;-62
2023/07/03 02:02:19;;;;;;;4.77;4.10;;;22.20;97.50;;;;;;6250506;28;20224;-62
2023/07/03 02:05:27;;;;;;;4.73;4.10;;;22.20;98.00;;;;;;6251097;28;20237;-62
2023/07/03 02:08:35;;;;;;;4.30;3.90;;;22.20;97.70;;;;;;6251022;28;20228;-62
2023/07/03 02:11:45;;;;;;;3.80;3.50;;;22.20;97.80;;;;;;6251041;28;20482;-62
2023/07/03 02:14:48;;;;;;;4.33;3.80;;;22.10;97.80;;;;;;6251550;28;20189;-61
2023/07/03 02:17:57;;;;;;;4.00;3.70;;;22.10;98.10;;;;;;6251329;28;20239;-61
2023/07/03 02:21:06;;;;;;;6.40;3.80;;;22.10;98.10;;;;;;6251476;28;20240;-61
2023/07/03 02:24:09;;;;;;;4.70;4.30;;;22.10;98.10;;;;;;6250139;28;20228;-61
2023/07/03 02:27:15;;;;;;;4.60;4.20;;;22.10;98.20;;;;;;6251321;28;20227;-61
2023/07/03 02:30:19;;;;;;;4.90;3.97;;;22.10;98.40;;;;;;6250987;28;20622;-61
2023/07/03 02:33:23;;;;;;;4.03;3.57;;;22.10;98.30;;;;;;6251328;28;20279;-61
2023/07/03 02:36:30;;;;;;;5.87;4.13;;;22.10;98.40;;;;;;6251206;28;20313;-61
2023/07/03 02:39:33;;;;;;;4.43;3.93;;;22.00;98.50;;;;;;6251008;28;20548;-62
2023/07/03 02:42:38;;;;;;;4.03;3.63;;;21.90;98.60;;;;;;6250215;28;20228;-62
2023/07/03 02:45:42;;;;;;;4.37;3.97;;;21.90;98.70;;;;;;6250517;28;20232;-61
2023/07/03 02:48:46;;;;;;;4.33;3.90;;;21.90;98.90;;;;;;6250497;28;20243;-61
2023/07/03 02:51:52;;;;;;;4.40;4.00;;;21.90;99.00;;;;;;6250615;28;20224;-61
2023/07/03 02:54:55;;;;;;;5.40;4.50;;;21.90;99.10;;;;;;6233426;28;20224;-61
2023/07/03 02:57:59;;;;;;;4.13;3.73;;;21.90;99.30;;;;;;6249947;28;20236;-61
2023/07/03 03:01:03;;;;;;;5.37;4.30;;;21.90;99.40;;;;;;6250239;28;20723;-61
2023/07/03 03:04:06;;;;;;;4.57;3.90;;;21.90;99.50;;;;;;6233157;28;20243;-61
2023/07/03 03:07:09;;;;;;;6.30;4.57;;;21.90;99.50;;;;;;6249790;28;20238;-61
2023/07/03 03:10:13;;;;;;;4.57;4.17;;;21.90;99.50;;;;;;6250151;28;20370;-61
2023/07/03 03:13:17;;;;;;;4.90;4.50;;;21.90;99.60;;;;;;6250048;28;20601;-62
2023/07/03 03:16:20;;;;;;;5.67;3.87;;;21.90;99.60;;;;;;6249967;28;20232;-62
2023/07/03 03:19:24;;;;;;;6.23;4.37;;;21.90;99.60;;;;;;6249971;28;20242;-62
2023/07/03 03:22:27;;;;;;;4.67;4.27;;;21.90;99.80;;;;;;6249864;28;20242;-62
2023/07/03 03:25:30;;;;;;;4.90;4.30;;;21.90;99.80;;;;;;6249960;28;20668;-61
2023/07/03 03:28:37;;;;;;;5.97;5.37;;;21.90;99.90;;;;;;6249758;28;20247;-61
2023/07/03 03:31:43;;;;;;;4.60;3.60;;;21.90;99.90;;;;;;6249969;28;20232;-61
2023/07/03 03:34:50;;;;;;;5.87;4.57;;;21.90;99.90;;;;;;6250234;28;20236;-62
2023/07/03 03:37:53;;;;;;;5.53;5.03;;;21.90;99.90;;;;;;6254846;28;20235;-62
2023/07/03 03:40:58;;;;;;;5.70;4.70;;;21.90;99.90;;;;;;6256220;28;20243;-62
2023/07/03 03:44:02;;;;;;;7.10;4.90;;;21.90;99.90;;;;;;6254833;28;20235;-62
2023/07/03 03:47:08;;;;;;;5.37;4.43;;;21.90;99.90;;;;;;6254646;28;20561;-62
2023/07/03 03:50:12;;;;;;;9.43;5.93;;;21.90;99.90;;;;;;6254744;28;20764;-61
2023/07/03 03:53:16;;;;;;;5.33;4.83;;;21.90;99.90;;;;;;6254406;28;20311;-61
2023/07/03 03:56:22;;;;;;;6.03;4.60;;;22.00;99.90;;;;;;6253977;28;20702;-61
2023/07/03 03:59:31;;;;;;;5.90;4.67;;;22.00;99.90;;;;;;6245210;28;20684;-61
2023/07/03 04:02:34;;;;;;;5.73;5.20;;;22.00;99.90;;;;;;6254093;28;20219;-61
2023/07/03 04:05:41;;;;;;;9.47;5.13;;;22.00;99.90;;;;;;6254598;28;20235;-61
2023/07/03 04:08:49;;;;;;;5.07;4.67;;;21.90;99.90;;;;;;6236889;28;20679;-61
2023/07/03 04:11:53;;;;;;;6.93;4.40;;;21.90;99.90;;;;;;6254314;28;20279;-61
2023/07/03 04:14:57;;;;;;;5.90;5.40;;;22.00;99.90;;;;;;6254253;28;20239;-61
2023/07/03 04:18:01;;;;;;;5.47;4.97;;;21.90;99.90;;;;;;6254171;28;20240;-62
2023/07/03 04:21:05;;;;;;;5.73;5.23;;;22.00;99.90;;;;;;6254333;28;20274;-62
2023/07/03 04:24:11;;;;;;;5.40;4.90;;;21.90;99.90;;;;;;6253940;28;20242;-62
2023/07/03 04:27:15;;;;;;;6.30;5.40;;;22.00;99.90;;;;;;6253216;28;20228;-62
2023/07/03 04:30:23;;;;;;;5.50;5.00;;;22.10;99.90;;;;;;6254086;28;20554;-62
2023/07/03 04:33:28;;;;;;;6.10;5.50;;;22.10;99.90;;;;;;6253169;28;20299;-62
2023/07/03 04:36:32;;;;;;;6.23;5.60;;;22.20;99.90;;;;;;6252603;28;20239;-62
2023/07/03 04:39:35;;;;;;;5.57;4.73;;;22.20;99.90;;;;;;6252774;28;20603;-62
2023/07/03 04:42:42;;;;;;;6.67;5.60;;;22.30;99.90;;;;;;6252796;28;20238;-62
2023/07/03 04:45:49;;;;;;;7.60;6.60;;;22.40;99.90;;;;;;6252152;28;20240;-62
2023/07/03 04:48:53;;;;;;;8.90;5.00;;;22.40;99.90;;;;;;6252084;28;20248;-60
2023/07/03 04:51:59;;;;;;;7.80;5.47;;;22.50;99.90;;;;;;6252244;28;20232;-61
2023/07/03 04:55:07;;;;;;;6.03;5.50;;;22.60;99.90;;;;;;6251839;28;20357;-60
2023/07/03 04:58:11;;;;;;;8.70;5.50;;;22.60;99.90;;;;;;6235076;28;20232;-61
2023/07/03 05:01:15;;;;;;;5.10;4.70;;;22.80;99.90;;;;;;6247339;28;20235;-61
2023/07/03 05:04:19;;;;;;;6.60;6.00;;;22.90;99.90;;;;;;6251846;28;20703;-61
2023/07/03 05:07:23;;;;;;;6.37;5.87;;;23.10;99.70;;;;;;6251480;28;20676;-61
2023/07/03 05:10:26;;;;;;;6.03;5.53;;;23.20;99.30;;;;;;6251437;28;20576;-61
2023/07/03 05:13:30;;;;;;;7.33;6.47;;;23.30;99.10;;;;;;6257004;28;20255;-61
2023/07/03 05:16:37;;;;;;;6.13;5.53;;;23.30;98.70;;;;;;6256036;28;20223;-61
2023/07/03 05:19:43;;;;;;;6.00;5.40;;;23.20;98.90;;;;;;6254150;28;20224;-61
2023/07/03 05:22:47;;;;;;;6.90;6.20;;;23.30;98.90;;;;;;6251131;28;20228;-61
2023/07/03 05:25:51;;;;;;;6.70;6.13;;;23.30;98.70;;;;;;6251282;28;20236;-61
2023/07/03 05:28:57;;;;;;;7.43;6.70;;;23.20;98.70;;;;;;6251153;28;20559;-61
2023/07/03 05:32:03;;;;;;;6.67;5.80;;;23.10;99.00;;;;;;6250998;28;20236;-62
2023/07/03 05:35:08;;;;;;;8.67;6.07;;;23.00;99.30;;;;;;6211957;28;1149891;-62
2023/07/03 05:38:17;;;;;;;7.83;6.40;;;23.00;99.40;;;;;;6234948;28;20232;-61
2023/07/03 05:41:20;;;;;;;6.50;5.80;;;23.10;99.50;;;;;;6254398;28;20310;-61
2023/07/03 05:44:23;;;;;;;6.00;5.50;;;23.10;99.60;;;;;;6252001;28;20232;-62
2023/07/03 05:47:29;;;;;;;6.60;5.90;;;23.10;99.60;;;;;;6251689;28;20236;-62
2023/07/03 05:50:32;;;;;;;7.43;6.63;;;23.10;99.70;;;;;;6252016;28;20277;-60
2023/07/03 05:53:38;;;;;;;6.93;6.27;;;23.20;99.70;;;;;;6250687;28;20246;-61
2023/07/03 05:56:43;;;;;;;7.40;6.70;;;23.20;99.70;;;;;;6252089;28;20311;-62
2023/07/03 05:59:46;;;;;;;8.37;6.83;;;23.20;99.60;;;;;;6251027;28;20218;-61
2023/07/03 06:02:54;;;;;;;7.00;6.30;;;23.20;99.60;;;;;;6251701;28;20294;-60
2023/07/03 06:05:58;;;;;;;6.50;5.90;;;23.20;99.80;;;;;;6252053;28;20242;-60
2023/07/03 06:09:01;;;;;;;7.90;7.20;;;23.10;99.90;;;;;;6251353;28;20255;-62
2023/07/03 06:12:05;;;;;;;7.47;6.77;;;23.10;99.90;;;;;;6251465;28;20728;-61
2023/07/03 06:15:11;;;;;;;11.00;7.60;;;23.10;99.90;;;;;;6251489;28;20290;-60
2023/07/03 06:18:19;;;;;;;7.60;6.40;;;23.10;99.90;;;;;;6251187;28;20228;-61
2023/07/03 06:21:24;;;;;;;7.87;7.00;;;23.10;99.90;;;;;;6251326;28;20227;-61
2023/07/03 06:24:28;;;;;;;10.30;7.93;;;23.00;99.90;;;;;;6250956;28;20227;-61
2023/07/03 06:27:34;;;;;;;9.73;6.97;;;23.00;99.90;;;;;;6250437;28;20238;-60
2023/07/03 06:30:46;;;;;;;7.07;6.43;;;23.00;99.90;;;;;;6251005;28;20331;-60
2023/07/03 06:33:51;;;;;;;7.50;6.70;;;23.00;99.90;;;;;;6250472;28;20551;-61
2023/07/03 06:36:54;;;;;;;6.83;6.27;;;22.90;99.90;;;;;;6233678;28;20312;-60
2023/07/03 06:39:58;;;;;;;8.83;7.00;;;22.90;99.90;;;;;;6250736;28;20224;-60
2023/07/03 06:43:01;;;;;;;8.07;7.07;;;22.90;99.90;;;;;;6250729;28;20664;-61
2023/07/03 06:46:04;;;;;;;7.60;6.70;;;22.80;99.90;;;;;;6250707;28;20228;-60
2023/07/03 06:49:12;;;;;;;6.40;5.90;;;22.60;99.90;;;;;;6250554;28;20238;-60
2023/07/03 06:52:18;;;;;;;7.37;6.53;;;22.60;99.90;;;;;;6250941;28;20235;-61
2023/07/03 06:55:21;;;;;;;7.20;6.50;;;22.60;99.90;;;;;;6233521;28;20370;-62
2023/07/03 06:58:24;;;;;;;8.20;7.40;;;22.60;99.90;;;;;;6250466;28;20232;-60
2023/07/03 07:01:29;;;;;;;8.13;6.83;;;22.60;99.90;;;;;;6250243;28;20228;-59
2023/07/03 07:04:36;;;;;;;8.23;7.13;;;22.60;99.90;;;;;;6250466;28;20227;-59
2023/07/03 07:07:41;;;;;;;10.47;8.03;;;22.50;99.90;;;;;;6250169;28;20652;-61
2023/07/03 07:10:44;;;;;;;7.77;7.07;;;22.50;99.90;;;;;;6240333;28;20323;-64
2023/07/03 07:13:50;;;;;;;8.00;7.20;;;22.60;99.90;;;;;;6250257;28;20238;-63
2023/07/03 07:16:53;;;;;;;6.97;6.37;;;22.60;99.90;;;;;;6233122;28;20294;-63
2023/07/03 07:19:59;;;;;;;8.43;7.40;;;22.60;99.90;;;;;;6250093;28;20236;-60
2023/07/03 07:23:13;;;;;;;7.60;6.90;;;22.80;99.90;;;;;;6249869;28;20298;-63
2023/07/03 07:26:16;;;;;;;8.60;7.80;;;22.70;99.90;;;;;;6249939;28;20228;-61
2023/07/03 07:29:20;;;;;;;8.37;7.57;;;22.70;99.90;;;;;;6250006;28;20247;-60
2023/07/03 07:32:25;;;;;;;8.83;7.93;;;22.70;99.90;;;;;;6250232;28;20228;-61
2023/07/03 07:35:35;;;;;;;7.93;7.23;;;22.60;99.90;;;;;;6249652;28;20251;-60
2023/07/03 07:38:38;;;;;;;9.83;9.03;;;22.60;99.90;;;;;;6250269;28;20216;-61
2023/07/03 07:41:41;;;;;;;8.57;7.67;;;22.50;99.90;;;;;;6249672;28;20200;-61
2023/07/03 07:44:49;;;;;;;9.13;8.23;;;22.50;99.90;;;;;;6250132;28;20208;-60
2023/07/03 07:47:52;;;;;;;9.07;8.17;;;22.40;99.90;;;;;;6250182;28;20239;-60
2023/07/03 07:50:57;;;;;;;7.73;6.93;;;22.30;99.90;;;;;;6249958;28;20259;-62
2023/07/03 07:54:01;;;;;;;8.73;7.83;;;22.40;99.90;;;;;;6250048;28;20232;-63
2023/07/03 07:57:05;;;;;;;10.50;8.10;;;22.40;99.90;;;;;;6250033;28;20232;-63
2023/07/03 08:00:12;;;;;;;7.57;6.87;;;22.50;99.90;;;;;;6251436;28;20374;-62
2023/07/03 08:03:15;;;;;;;7.20;6.47;;;22.50;99.90;;;;;;6250601;28;20228;-61
2023/07/03 08:06:20;;;;;;;7.33;6.73;;;22.60;99.90;;;;;;6251235;28;20232;-60
2023/07/03 08:09:24;;;;;;;7.67;7.07;;;22.60;99.90;;;;;;6252056;28;20722;-60
2023/07/03 08:12:27;;;;;;;6.60;6.10;;;23.00;99.90;;;;;;6246612;28;20235;-59
2023/07/03 08:15:30;;;;;;;7.90;7.20;;;23.20;99.90;;;;;;6250881;28;20242;-59
2023/07/03 08:18:34;;;;;;;6.80;6.07;;;23.30;99.90;;;;;;6250089;28;20327;-60
2023/07/03 08:21:41;;;;;;;7.20;6.60;;;23.30;99.90;;;;;;6250470;28;20274;-60
2023/07/03 08:24:47;;;;;;;5.77;5.27;;;23.40;99.90;;;;;;6253963;28;20232;-60
2023/07/03 08:27:54;;;;;;;9.03;6.13;;;23.30;99.90;;;;;;6253490;28;20236;-60
2023/07/03 08:30:57;;;;;;;6.43;5.80;;;23.10;99.90;;;;;;6253869;28;20688;-60
2023/07/03 08:34:02;;;;;;;5.50;5.00;;;23.00;99.90;;;;;;6253620;28;20240;-60
2023/07/03 08:37:08;;;;;;;6.50;5.43;;;22.80;99.90;;;;;;6253569;28;20252;-60
2023/07/03 08:40:16;;;;;;;6.10;5.50;;;22.70;99.90;;;;;;6253263;28;20243;-60
2023/07/03 08:43:22;;;;;;;7.00;6.07;;;22.60;99.90;;;;;;6253664;28;20375;-59
2023/07/03 08:46:29;;;;;;;7.00;6.30;;;22.40;99.90;;;;;;6253408;28;20315;-60
2023/07/03 08:49:34;;;;;;;6.63;6.03;;;22.40;99.90;;;;;;6236210;28;20294;-60
2023/07/03 08:52:45;;;;;;;5.13;4.73;;;22.60;99.90;;;;;;6252627;28;20573;-60
2023/07/03 08:55:55;;;;;;;7.30;6.00;;;22.80;99.90;;;;;;6252990;28;20238;-60
2023/07/03 08:58:59;;;;;;;6.40;5.53;;;23.00;99.90;;;;;;6252972;28;20252;-60
2023/07/03 09:02:11;;;;;;;5.70;5.20;;;23.20;99.90;;;;;;6252887;28;20256;-60
2023/07/03 09:05:32;;;;;;;8.50;5.43;;;23.40;99.90;;;;;;6252824;28;20366;-60
2023/07/03 09:08:42;;;;;;;6.73;6.03;;;23.80;99.90;;;;;;6252442;28;20246;-60
2023/07/03 09:11:53;;;;;;;5.97;5.37;;;24.10;99.90;;;;;;6252978;28;20511;-60
2023/07/03 09:15:01;;;;;;;5.87;5.27;;;24.30;99.90;;;;;;6258287;28;20663;-60
2023/07/03 09:18:13;;;;;;;6.43;5.83;;;24.30;99.20;;;;;;6253361;28;20243;-60
2023/07/03 09:21:19;;;;;;;5.80;5.30;;;24.20;99.40;;;;;;6252833;28;20229;-60
2023/07/03 09:24:28;;;;;;;5.97;5.37;;;23.90;99.50;;;;;;6245939;28;20229;-63
2023/07/03 09:27:34;;;;;;;8.10;6.43;;;23.70;99.90;;;;;;6223354;28;20233;-60
2023/07/03 09:30:38;;;;;;;5.60;5.10;;;23.30;99.90;;;;;;6233308;28;20367;-60
2023/07/03 09:33:42;;;;;;;6.57;5.80;;;23.20;99.90;;;;;;6240487;28;20239;-60
2023/07/03 09:36:45;;;;;;;6.63;6.00;;;23.20;99.90;;;;;;6274998;28;20235;-60
2023/07/03 09:39:52;;;;;;;9.20;5.90;;;23.10;99.90;;;;;;6275253;28;20232;-60
2023/07/03 09:42:57;;;;;;;6.87;5.63;;;23.20;99.90;;;;;;6262627;28;20239;-59
2023/07/03 09:46:07;;;;;;;4.83;4.27;;;23.10;99.90;;;;;;6251823;28;20236;-59
2023/07/03 09:49:17;;;;;;;6.90;4.37;;;23.00;99.90;;;;;;6252224;28;20232;-59
2023/07/03 09:52:23;;;;;;;4.70;4.20;;;22.90;99.90;;;;;;6236034;28;20256;-59
2023/07/03 09:55:28;;;;;;;5.50;4.50;;;22.80;99.90;;;;;;6251995;28;20247;-60
2023/07/03 09:58:36;;;;;;;6.93;6.23;;;22.90;99.90;;;;;;6252124;28;20239;-61
2023/07/03 10:01:41;;;;;;;6.47;4.70;;;22.70;99.90;;;;;;6275975;28;20277;-61
2023/07/03 10:04:51;;;;;;;7.60;5.13;;;22.70;99.90;;;;;;6276137;28;20237;-61
2023/07/03 10:08:03;;;;;;;5.93;5.40;;;22.60;99.90;;;;;;6276112;28;20671;-60
2023/07/03 10:11:08;;;;;;;7.40;6.57;;;22.50;99.90;;;;;;6275964;28;20232;-61
2023/07/03 10:14:24;;;;;;;6.70;6.10;;;22.50;99.90;;;;;;6275909;28;20220;-61
2023/07/03 10:17:32;;;;;;;6.60;6.00;;;22.60;99.90;;;;;;6258587;28;20238;-61
2023/07/03 10:20:41;;;;;;;7.10;6.40;;;22.80;99.90;;;;;;6275998;28;20579;-65
2023/07/03 10:23:49;;;;;;;6.80;5.80;;;23.00;99.90;;;;;;6276410;28;20207;-65
2023/07/03 10:27:00;;;;;;;7.37;5.47;;;23.30;99.90;;;;;;6258164;28;20617;-64
2023/07/03 10:30:09;;;;;;;7.97;5.80;;;23.50;99.90;;;;;;6251999;28;20240;-66
2023/07/03 10:33:18;;;;;;;9.90;6.80;;;23.60;99.90;;;;;;6257298;28;20231;-65
2023/07/03 10:36:25;;;;;;;6.33;5.73;;;23.70;99.90;;;;;;6276170;28;20238;-63
2023/07/03 10:39:38;;;;;;;9.10;5.37;;;23.70;99.90;;;;;;6275660;28;20659;-64
2023/07/03 10:42:49;;;;;;;6.50;5.90;;;23.70;99.90;;;;;;6275925;28;20316;-62
2023/07/03 10:45:54;;;;;;;8.50;6.90;;;23.90;99.90;;;;;;6274835;28;20231;-63
2023/07/03 10:49:06;;;;;;;8.67;5.90;;;23.90;99.90;;;;;;6275460;28;20277;-64
2023/07/03 10:52:18;;;;;;;6.33;5.73;;;24.00;99.90;;;;;;6275811;28;20320;-64
2023/07/03 10:55:29;;;;;;;7.27;6.10;;;24.00;99.40;;;;;;6275014;28;20680;-64
2023/07/03 10:58:41;;;;;;;7.13;6.47;;;24.00;98.90;;;;;;6274133;28;20219;-63
2023/07/03 11:01:55;;;;;;;7.47;6.27;;;23.90;98.80;;;;;;6274553;28;20312;-63
2023/07/03 11:05:09;;;;;;;8.10;6.70;;;23.90;99.00;;;;;;6269762;28;20316;-63
2023/07/03 11:08:20;;;;;;;6.97;6.27;;;23.80;98.90;;;;;;6273003;28;20373;-61
2023/07/03 11:11:33;;;;;;;8.40;6.70;;;23.70;99.40;;;;;;6269184;28;20236;-62
2023/07/03 11:14:52;;;;;;;7.73;7.03;;;23.70;99.30;;;;;;6273693;28;20234;-63
2023/07/03 11:18:06;;;;;;;9.43;6.70;;;23.70;99.30;;;;;;6249995;28;20230;-63
2023/07/03 11:21:22;;;;;;;6.77;6.17;;;23.70;99.40;;;;;;6249965;28;20224;-63
2023/07/03 11:24:33;;;;;;;7.90;7.10;;;23.70;98.90;;;;;;6246513;28;20235;-63
2023/07/03 11:27:43;;;;;;;8.03;6.27;;;23.80;98.70;;;;;;6256133;28;20564;-63
2023/07/03 11:30:52;;;;;;;7.53;6.80;;;23.70;98.80;;;;;;6274809;28;20255;-62
2023/07/03 11:33:57;;;;;;;8.07;6.67;;;23.80;98.90;;;;;;6273770;28;20345;-61
2023/07/03 11:37:35;;;;;;;10.10;6.87;;;23.90;99.00;;;;;;6269382;28;20250;-61
2023/07/03 11:41:02;;;;;;;7.40;6.70;;;24.00;98.50;;;;;;6275724;28;20233;-62
2023/07/03 11:44:16;;;;;;;8.27;7.17;;;24.20;98.70;;;;;;6275695;28;20687;-61
2023/07/03 11:47:33;;;;;;;7.70;6.90;;;24.20;98.80;;;;;;6272219;28;20235;-61
2023/07/03 11:50:36;;;;;;;7.90;7.00;;;24.40;98.90;;;;;;6272057;28;20224;-61
2023/07/03 11:53:44;;;;;;;12.13;8.00;;;24.50;98.00;;;;;;6255487;28;20231;-64
2023/07/03 11:56:59;;;;;;;8.03;7.33;;;24.60;97.60;;;;;;6275692;28;20232;-65
2023/07/03 12:00:29;;;;;;;11.77;8.37;;;24.60;97.60;;;;;;6279446;28;20277;-65
2023/07/03 12:03:52;;;;;;;9.10;7.63;;;24.50;97.60;;;;;;6278995;28;20231;-64
2023/07/03 12:06:59;;;;;;;10.80;9.07;;;24.50;97.50;;;;;;6278619;28;20247;-65
2023/07/03 12:10:53;;;;;;;11.43;8.17;;;24.40;96.70;;;;;;6279084;28;20227;-64
2023/07/03 12:13:59;;;;;;;9.47;8.50;;;24.20;97.20;;;;;;6227390;28;20232;-65
2023/07/03 12:17:17;;;;;;;13.37;8.70;;;24.10;97.20;;;;;;6226971;28;20375;-65
2023/07/03 12:20:23;;;;;;;9.60;8.50;;;23.90;96.70;;;;;;6278598;28;20245;-67
2023/07/03 12:23:34;;;;;;;11.10;8.47;;;23.80;96.30;;;;;;6278469;28;20228;-67
2023/07/03 12:26:51;;;;;;;9.67;8.67;;;23.60;96.40;;;;;;6278271;28;20235;-67
2023/07/03 12:29:54;;;;;;;10.67;8.60;;;23.50;96.90;;;;;;6278566;28;20212;-65
2023/07/03 12:32:59;;;;;;;12.00;9.43;;;23.50;97.30;;;;;;6278112;28;20236;-65
2023/07/03 12:36:06;;;;;;;10.57;9.07;;;23.40;97.50;;;;;;6278444;28;20216;-64
2023/07/03 12:39:13;;;;;;;10.47;8.10;;;23.30;97.40;;;;;;6278332;28;20223;-65
2023/07/03 12:42:24;;;;;;;11.53;9.20;;;23.30;97.60;;;;;;6278604;28;20228;-65
2023/07/03 12:45:28;;;;;;;9.37;8.33;;;23.30;97.30;;;;;;6278104;28;20272;-66
2023/07/03 12:48:32;;;;;;;11.73;9.00;;;23.10;97.10;;;;;;6277727;28;20231;-64
2023/07/03 12:51:42;;;;;;;9.53;8.53;;;23.00;97.40;;;;;;6277841;28;20239;-66
2023/07/03 12:54:47;;;;;;;9.90;8.87;;;23.00;97.60;;;;;;6278239;28;20238;-64
2023/07/03 12:57:54;;;;;;;10.13;8.60;;;22.90;97.80;;;;;;6283090;28;20600;-64
2023/07/03 13:01:00;;;;;;;13.70;9.20;;;22.90;98.10;;;;;;6278608;28;20717;-62
2023/07/03 13:04:04;;;;;;;11.23;10.17;;;22.90;98.10;;;;;;6277175;28;20230;-63
2023/07/03 13:07:15;;;;;;;13.33;9.23;;;22.80;97.80;;;;;;6276630;28;20330;-62
2023/07/03 13:10:21;;;;;;;10.40;8.67;;;22.80;97.90;;;;;;6260683;28;20311;-65
2023/07/03 13:13:27;;;;;;;12.13;8.77;;;22.90;98.20;;;;;;6277476;28;20223;-65
2023/07/03 13:16:31;;;;;;;10.50;8.70;;;22.80;98.40;;;;;;6277511;28;20580;-66
2023/07/03 13:19:39;;;;;;;9.97;8.37;;;22.80;98.70;;;;;;6278082;28;20682;-65
2023/07/03 13:22:48;;;;;;;10.53;8.83;;;22.90;98.70;;;;;;6276671;28;20574;-66
2023/07/03 13:25:54;;;;;;;11.30;9.40;;;23.00;98.50;;;;;;6273620;28;20251;-63
2023/07/03 13:29:00;;;;;;;9.43;8.47;;;23.10;98.70;;;;;;6278904;28;20235;-63
2023/07/03 13:32:15;;;;;;;9.17;8.27;;;23.20;98.10;;;;;;6276408;28;20227;-62
2023/07/03 13:35:27;;;;;;;14.73;10.00;;;23.20;98.00;;;;;;6268485;28;20775;-63
2023/07/03 13:38:32;;;;;;;11.00;9.80;;;23.30;97.90;;;;;;6276913;28;20327;-67
2023/07/03 13:41:39;;;;;;;11.30;10.20;;;23.40;97.80;;;;;;6277072;28;20224;-66
2023/07/03 13:44:43;;;;;;;12.87;9.60;;;23.50;97.60;;;;;;6276268;28;20210;-65
2023/07/03 13:47:51;;;;;;;13.53;10.30;;;23.40;97.30;;;;;;6276300;28;20227;-64
2023/07/03 13:50:55;;;;;;;11.70;9.87;;;23.40;97.20;;;;;;6276267;28;20560;-64
2023/07/03 13:54:00;;;;;;;11.30;9.53;;;23.40;97.40;;;;;;6276480;28;20239;-64
2023/07/03 13:57:14;;;;;;;11.00;9.13;;;23.50;97.40;;;;;;6276339;28;20292;-64
2023/07/03 14:00:19;;;;;;;12.10;10.40;;;23.50;96.90;;;;;;6276724;28;20231;-64
2023/07/03 14:03:22;;;;;;;12.20;8.70;;;23.60;96.80;;;;;;6279653;28;20784;-63
2023/07/03 14:06:26;;;;;;;10.40;9.30;;;23.50;96.50;;;;;;6276607;28;20240;-65
2023/07/03 14:09:31;;;;;;;10.93;9.00;;;23.50;96.40;;;;;;6275089;28;20235;-63
2023/07/03 14:12:42;;;;;;;11.13;10.00;;;23.50;96.40;;;;;;6275974;28;20228;-63
2023/07/03 14:15:46;;;;;;;11.13;9.50;;;23.60;96.90;;;;;;6276268;28;20239;-64
2023/07/03 14:18:49;;;;;;;11.43;8.90;;;23.80;96.10;;;;;;6274100;28;20364;-63
2023/07/03 14:21:52;;;;;;;12.23;9.80;;;24.00;95.70;;;;;;6275341;28;20277;-63
2023/07/03 14:24:57;;;;;;;12.87;10.30;;;24.10;95.20;;;;;;6274122;28;20285;-63
2023/07/03 14:28:01;;;;;;;11.63;10.43;;;24.20;94.90;;;;;;6275339;28;20242;-65
2023/07/03 14:31:04;;;;;;;14.20;8.93;;;24.20;94.60;;;;;;6274906;28;20227;-65
2023/07/03 14:34:07;;;;;;;13.47;10.97;;;24.30;94.40;;;;;;6264012;28;20250;-63
2023/07/03 14:37:10;;;;;;;11.00;9.90;;;24.40;94.60;;;;;;6246295;28;20377;-63
2023/07/03 14:40:15;;;;;;;11.07;9.50;;;24.40;94.70;;;;;;6250590;28;20224;-65
2023/07/03 14:43:19;;;;;;;12.20;10.90;;;24.60;94.70;;;;;;6250634;28;20331;-65
2023/07/03 14:46:22;;;;;;;11.03;9.77;;;24.70;95.00;;;;;;6250114;28;20246;-62
2023/07/03 14:49:25;;;;;;;11.63;9.80;;;25.10;95.00;;;;;;6249435;28;20305;-61
2023/07/03 14:52:35;;;;;;;12.80;8.77;;;25.30;94.40;;;;;;6246750;28;20223;-61
2023/07/03 14:55:39;;;;;;;11.93;10.73;;;25.50;94.10;;;;;;6249432;28;20350;-62
2023/07/03 14:58:45;;;;;;;10.83;9.80;;;25.70;94.00;;;;;;6249717;28;20572;-63
2023/07/03 15:01:49;;;;;;;8.70;7.73;;;25.70;93.60;;;;;;6247712;28;20223;-65
2023/07/03 15:04:52;;;;;;;10.50;8.50;;;25.80;93.70;;;;;;6250260;28;20235;-64
2023/07/03 15:07:56;;;;;;;8.23;7.43;;;25.80;93.50;;;;;;6251564;28;20262;-61
2023/07/03 15:11:01;;;;;;;8.17;7.37;;;25.80;93.70;;;;;;6252203;28;20228;-61
2023/07/03 15:14:08;;;;;;;10.97;7.77;;;25.80;93.50;;;;;;6253886;28;20243;-61
2023/07/03 15:17:11;;;;;;;7.50;6.80;;;25.70;93.30;;;;;;6250491;28;20233;-61
2023/07/03 15:20:14;;;;;;;8.73;7.93;;;25.30;93.70;;;;;;6249982;28;20224;-61
2023/07/03 15:23:18;;;;;;;7.23;6.53;;;25.00;94.70;;;;;;6249555;28;20314;-61
2023/07/03 15:26:23;;;;;;;8.33;7.03;;;24.90;95.00;;;;;;6231571;28;20224;-61
2023/07/03 15:29:29;;;;;;;7.97;7.10;;;24.80;94.70;;;;;;6249500;28;20373;-61
2023/07/03 15:32:33;;;;;;;9.27;8.37;;;24.70;94.90;;;;;;6254119;28;20656;-61
2023/07/03 15:35:37;;;;;;;7.80;7.10;;;24.60;95.50;;;;;;6278292;28;20267;-61
2023/07/03 15:38:44;;;;;;;10.37;6.20;;;24.60;95.40;;;;;;6278912;28;20670;-63
2023/07/03 15:41:49;;;;;;;6.67;5.90;;;24.60;95.10;;;;;;6279474;28;20203;-61
2023/07/03 15:44:56;;;;;;;8.40;7.53;;;24.70;95.20;;;;;;6279142;28;20200;-61
2023/07/03 15:47:59;;;;;;;7.50;6.80;;;24.90;95.50;;;;;;6278628;28;20336;-61
2023/07/03 15:51:04;;;;;;;8.53;6.30;;;24.90;95.20;;;;;;6278962;28;20231;-61
2023/07/03 15:54:09;;;;;;;8.40;6.60;;;25.00;95.40;;;;;;6279902;28;20671;-61
2023/07/03 15:57:19;;;;;;;7.60;6.80;;;25.00;95.00;;;;;;6279169;28;20284;-61
2023/07/03 16:00:22;;;;;;;9.03;6.63;;;24.90;95.10;;;;;;6278375;28;20234;-61
2023/07/03 16:03:26;;;;;;;6.97;6.27;;;25.00;94.90;;;;;;6278378;28;20222;-61
2023/07/03 16:06:34;;;;;;;6.47;5.77;;;25.00;94.90;;;;;;6278279;28;20300;-61
2023/07/03 16:09:38;;;;;;;7.00;6.23;;;25.10;95.30;;;;;;6277304;28;20305;-61